メインページ
METAR-TAF:

METAR-TAF

空港 :

小松飛行場

小松, 日本

緯度: 36-23N, 経度: 136-25E, 海抜: 6m

現時点の気象観測

当レポートは19分前の22:00(UTC)に作成
変向風 5kt
気温 11°C
湿度 82%
気圧 1018 hPa
視程: 7000m
高度1000ftの雲はほとんどない
高度1500ftの千切れ雲あり
高度2000ftの千切れ雲あり
弱いにわか雨

METAR: RJNK 162200Z VRB05KT 7000 -SHRA FEW010 BKN015 BKN020 11/08 Q1018

時間: 07:19 (22:19 UTC)

予報

当レポートは5時間14分前の17:05(UTC)に作成
予報は16日の 18時(UTC)から 18日の 00時(UTC)まで有効
の風 6kt
視程10km以上
高度1000ftの雲はほとんどない
高度3000ftの千切れ雲あり
16日の 20時(UTC)から 16日の 22時(UTC)まで徐々に
北/北東の風 12kt
16日の 20時(UTC)から 16日の 23時(UTC)まで一時的に
視程: 4000m
にわか雨, 靄

TAF: RJNK 161705Z 1618/1800 18006KT 9999 FEW010 BKN030 BECMG 1620/1622 03012KT TEMPO 1620/1623 4000 SHRA BR

4,000以上の空港の気象観測と天気予報(METAR報とTAF報)

利用可能な観測所は地図上に黄色い丸と赤い丸で示す。

丸の上にカーソルを重ねると観測所名を参照できる。

次にクリックすると気象観測と天気予報を参照できる。

マップの切り替え:黒色「×」印の緑ボタンをクリックして拡大、「-」印の緑ボタンをクリックして縮小、緑色の三角印をクリックして隣りの地図に切り替え


METAR-TAF: